Time;durP1;ratioP1;P1;durP2;ratioP2;P2;SDS_P1;SDS_P2;PMS_P1;PMS_P2;Temp;Humidity;BMP_temperature;BMP_pressure;BME280_temperature;BME280_humidity;BME280_pressure;Samples;Min_cycle;Max_cycle;Signal;HPM_P1;HPM_P2
2023/11/11 00:01:48;;;;;;;5.20;3.90;;;;;;;7.61;74.39;96191.59;110262;1239;60504;-65
2023/11/11 00:04:20;;;;;;;4.70;3.90;;;;;;;7.60;74.95;96188.02;110228;1241;71639;-65
2023/11/11 00:06:51;;;;;;;4.90;3.80;;;;;;;7.61;74.45;96183.30;110287;1242;69235;-65
2023/11/11 00:09:23;;;;;;;4.00;3.00;;;;;;;7.60;74.80;96178.34;110190;1241;69057;-65
2023/11/11 00:11:54;;;;;;;4.30;2.70;;;;;;;7.60;74.93;96180.23;110225;1240;60535;-65
2023/11/11 00:14:26;;;;;;;4.10;3.20;;;;;;;7.62;75.29;96182.35;110242;1241;60483;-66
2023/11/11 00:16:56;;;;;;;7.40;5.40;;;;;;;7.62;74.90;96178.86;110269;1242;72318;-67
2023/11/11 00:19:27;;;;;;;8.10;6.70;;;;;;;7.56;76.72;96177.64;110276;1241;68618;-66
2023/11/11 00:21:59;;;;;;;6.50;5.00;;;;;;;7.50;76.32;96172.79;110252;1241;68252;-64
2023/11/11 00:24:30;;;;;;;7.20;4.80;;;;;;;7.46;76.22;96170.13;110307;1245;60950;-66
2023/11/11 00:27:00;;;;;;;6.10;4.50;;;;;;;7.44;77.64;96165.29;110329;1241;60480;-66
2023/11/11 00:29:30;;;;;;;4.90;4.00;;;;;;;7.40;81.54;96167.17;110292;1241;72287;-66
2023/11/11 00:32:00;;;;;;;5.60;4.60;;;;;;;7.35;82.80;96161.98;110307;1243;68892;-64
2023/11/11 00:34:31;;;;;;;6.20;4.30;;;;;;;7.30;79.36;96156.45;110229;1240;69442;-64
2023/11/11 00:37:03;;;;;;;6.20;4.10;;;;;;;7.26;81.84;96156.14;110098;1244;60514;-64
2023/11/11 00:39:34;;;;;;;5.90;4.30;;;;;;;7.22;84.48;96157.63;110125;1241;60522;-64
2023/11/11 00:42:04;;;;;;;5.80;4.70;;;;;;;7.19;83.98;96156.50;110258;1242;72761;-66
2023/11/11 00:44:37;;;;;;;8.10;5.60;;;;;;;7.17;79.59;96159.27;110231;1242;69085;-66
2023/11/11 00:47:07;;;;;;;7.80;5.20;;;;;;;7.11;79.60;96157.12;110198;1241;68730;-65
2023/11/11 00:49:43;;;;;;;6.10;4.70;;;;;;;7.05;79.64;96150.12;110211;1240;60546;-65
2023/11/11 00:52:20;;;;;;;6.90;4.90;;;;;;;7.03;83.05;96146.83;110237;1241;60498;-64
2023/11/11 00:54:52;;;;;;;7.50;5.00;;;;;;;7.02;88.04;96149.85;110150;1245;72190;-64
2023/11/11 00:57:22;;;;;;;;;;;;;;;7.01;86.38;96149.26;110242;1242;69206;-64
2023/11/11 00:59:54;;;;;;;6.10;4.00;;;;;;;7.00;85.95;96141.40;110225;1243;69261;-66
2023/11/11 01:02:25;;;;;;;4.70;3.90;;;;;;;7.00;83.43;96129.80;110228;1241;60481;-64
2023/11/11 01:04:57;;;;;;;4.60;3.70;;;;;;;6.99;81.64;96125.48;110264;1241;60506;-64
2023/11/11 01:07:31;;;;;;;6.00;4.30;;;;;;;7.00;83.17;96129.94;110209;1241;72045;-64
2023/11/11 01:10:04;;;;;;;5.10;3.90;;;;;;;6.98;83.84;96133.73;110276;1240;68437;-64
2023/11/11 01:12:36;;;;;;;6.40;4.10;;;;;;;6.98;83.69;96137.21;110093;1244;69385;-64
2023/11/11 01:15:09;;;;;;;13.20;9.90;;;;;;;6.96;81.97;96141.52;110204;1241;60561;-66
2023/11/11 01:17:41;;;;;;;10.10;8.60;;;;;;;6.86;83.02;96140.02;110254;1241;60514;-64
2023/11/11 01:20:14;;;;;;;9.50;7.70;;;;;;;6.78;85.75;96137.38;110225;1241;72668;-64
2023/11/11 01:22:47;;;;;;;7.50;5.80;;;;;;;6.74;90.02;96132.30;110137;1244;69368;-66
2023/11/11 01:25:21;;;;;;;7.30;5.20;;;;;;;6.73;93.10;96129.06;110110;1244;68884;-66
2023/11/11 01:27:54;;;;;;;7.50;5.70;;;;;;;6.74;94.02;96125.37;110205;1244;60569;-66
2023/11/11 01:30:28;;;;;;;7.10;5.40;;;;;;;6.76;98.25;96126.48;110249;1241;60484;-66
2023/11/11 01:33:00;;;;;;;6.40;4.70;;;;;;;6.75;100.00;96120.48;110264;1242;71656;-66
2023/11/11 01:35:33;;;;;;;6.40;4.50;;;;;;;6.74;97.60;96115.20;110246;1240;68887;-66
2023/11/11 01:38:04;;;;;;;5.80;4.40;;;;;;;6.73;92.83;96108.52;110134;1240;69134;-66
2023/11/11 01:40:35;;;;;;;5.10;3.80;;;;;;;6.72;91.83;96107.21;110215;1241;61004;-66
2023/11/11 01:43:13;;;;;;;3.20;2.80;;;;;;;6.72;92.24;96110.14;110236;1243;60539;-65
2023/11/11 01:45:45;;;;;;;3.70;3.00;;;;;;;6.74;96.61;96115.20;110270;1241;72180;-65
2023/11/11 01:48:17;;;;;;;4.00;3.50;;;;;;;6.74;100.00;96112.44;110278;1242;69142;-64
2023/11/11 01:50:48;;;;;;;6.00;4.60;;;;;;;6.73;100.00;96107.65;110214;1247;69615;-64
2023/11/11 01:53:20;;;;;;;4.70;3.70;;;;;;;6.71;100.00;96099.48;110240;1240;60564;-64
2023/11/11 01:55:52;;;;;;;4.40;3.40;;;;;;;6.69;100.00;96100.04;110242;1241;60543;-64
2023/11/11 01:58:26;;;;;;;7.80;4.90;;;;;;;6.67;100.00;96100.89;110233;1240;71549;-66
2023/11/11 02:01:00;;;;;;;5.50;4.50;;;;;;;6.63;100.00;96101.30;110261;1240;68570;-64
2023/11/11 02:03:34;;;;;;;4.90;3.80;;;;;;;6.61;95.77;96096.10;110210;1241;69114;-65
2023/11/11 02:06:09;;;;;;;10.70;6.40;;;;;;;6.59;93.59;96096.56;110217;1242;60550;-65
2023/11/11 02:08:39;;;;;;;6.00;4.80;;;;;;;6.57;99.43;96098.98;110213;1240;60845;-64
2023/11/11 02:11:10;;;;;;;7.80;5.00;;;;;;;6.57;100.00;96098.66;110228;1241;72024;-65
2023/11/11 02:13:43;;;;;;;7.40;5.10;;;;;;;6.57;100.00;96093.11;110128;1243;69151;-64
2023/11/11 02:16:16;;;;;;;7.90;6.30;;;;;;;6.57;100.00;96089.83;110192;1241;69342;-64
2023/11/11 02:18:47;;;;;;;7.90;6.30;;;;;;;6.57;100.00;96083.62;110235;1243;60512;-64
2023/11/11 02:21:19;;;;;;;10.30;6.60;;;;;;;6.55;100.00;96072.68;110219;1241;60507;-64
2023/11/11 02:23:53;;;;;;;7.70;6.20;;;;;;;6.53;100.00;96070.75;110215;1243;71870;-65
2023/11/11 02:26:24;;;;;;;8.70;6.90;;;;;;;6.51;100.00;96072.27;110259;1241;68590;-65
2023/11/11 02:28:56;;;;;;;8.10;6.60;;;;;;;6.49;100.00;96070.15;110211;1240;68534;-64
2023/11/11 02:31:29;;;;;;;6.90;5.30;;;;;;;6.49;100.00;96072.59;110115;1244;60541;-65
2023/11/11 02:34:02;;;;;;;7.50;5.60;;;;;;;6.50;100.00;96072.19;110245;1241;60464;-65
2023/11/11 02:36:34;;;;;;;7.70;6.30;;;;;;;6.50;100.00;96065.13;110265;1241;71457;-64
2023/11/11 02:39:06;;;;;;;8.30;6.30;;;;;;;6.49;100.00;96060.84;110318;1241;67561;-65
2023/11/11 02:41:38;;;;;;;7.70;5.90;;;;;;;6.49;100.00;96062.75;110211;1240;68346;-65
2023/11/11 02:44:11;;;;;;;7.10;5.80;;;;;;;6.48;99.70;96063.58;110204;1241;60513;-66
2023/11/11 02:46:42;;;;;;;8.20;5.90;;;;;;;6.47;99.42;96062.39;110127;1242;60493;-66
2023/11/11 02:49:13;;;;;;;7.50;5.10;;;;;;;6.45;100.00;96062.70;110272;1241;72016;-66
2023/11/11 02:51:47;;;;;;;7.30;5.60;;;;;;;6.46;100.00;96062.16;110248;1240;67594;-65
2023/11/11 02:54:19;;;;;;;9.80;7.10;;;;;;;6.45;100.00;96057.86;110213;1240;68819;-66
2023/11/11 02:56:50;;;;;;;7.70;5.30;;;;;;;6.46;100.00;96056.96;110294;1240;60467;-66
2023/11/11 02:59:22;;;;;;;8.60;5.80;;;;;;;6.47;100.00;96058.08;110273;1241;60543;-65
2023/11/11 03:01:53;;;;;;;7.80;6.00;;;;;;;6.47;100.00;96061.02;110331;1241;72092;-66
2023/11/11 03:04:24;;;;;;;7.40;5.90;;;;;;;6.47;100.00;96062.75;110203;1240;69118;-66
2023/11/11 03:06:57;;;;;;;6.50;5.70;;;;;;;6.46;100.00;96062.96;110175;1250;68528;-65
2023/11/11 03:09:31;;;;;;;8.90;6.00;;;;;;;6.45;100.00;96054.91;110121;1243;60436;-64
2023/11/11 03:12:09;;;;;;;7.80;5.90;;;;;;;6.44;100.00;96056.71;110308;1241;60530;-64
2023/11/11 03:14:40;;;;;;;8.50;6.30;;;;;;;6.43;100.00;96056.46;110285;1240;72238;-65
2023/11/11 03:17:11;;;;;;;7.10;5.80;;;;;;;6.42;100.00;96055.33;110226;1240;68732;-65
2023/11/11 03:19:44;;;;;;;7.00;5.20;;;;;;;6.43;100.00;96053.39;110255;1242;69303;-65
2023/11/11 03:22:20;;;;;;;7.90;6.90;;;;;;;6.42;100.00;96049.64;110270;1242;60554;-65
2023/11/11 03:24:51;;;;;;;6.60;5.50;;;;;;;6.43;100.00;96043.86;110232;1242;60527;-64
2023/11/11 03:27:23;;;;;;;8.00;5.40;;;;;;;6.43;100.00;96039.52;110249;1242;72223;-64
2023/11/11 03:29:54;;;;;;;6.90;5.80;;;;;;;6.43;100.00;96040.23;110261;1241;69038;-64
2023/11/11 03:32:25;;;;;;;7.40;5.90;;;;;;;6.42;100.00;96032.50;110108;1240;69293;-64
2023/11/11 03:34:56;;;;;;;8.30;6.20;;;;;;;6.39;100.00;96030.99;110247;1242;60541;-64
2023/11/11 03:37:29;;;;;;;7.90;5.50;;;;;;;6.37;100.00;96025.31;110145;1244;60505;-64
2023/11/11 03:40:01;;;;;;;6.30;5.00;;;;;;;6.34;100.00;96027.60;110300;1241;71351;-64
2023/11/11 03:42:39;;;;;;;6.80;4.90;;;;;;;6.33;100.00;96024.73;110300;1240;68736;-65
2023/11/11 03:45:12;;;;;;;7.10;5.70;;;;;;;6.31;100.00;96017.23;110247;1240;68604;-65
2023/11/11 03:47:45;;;;;;;7.10;5.60;;;;;;;6.30;100.00;96007.15;110301;1241;60581;-66
2023/11/11 03:50:17;;;;;;;5.90;5.10;;;;;;;6.30;100.00;96007.86;110296;1240;60560;-64
2023/11/11 03:52:48;;;;;;;7.20;5.30;;;;;;;6.28;100.00;96001.27;110234;1242;72261;-63
2023/11/11 03:55:20;;;;;;;6.80;5.30;;;;;;;6.27;100.00;96002.33;110301;1241;69201;-65
2023/11/11 03:57:54;;;;;;;8.60;6.80;;;;;;;6.26;100.00;95998.30;110207;1241;68433;-64
2023/11/11 04:00:23;;;;;;;9.20;7.20;;;;;;;6.22;100.00;95993.02;110245;1241;60575;-65
2023/11/11 04:02:55;;;;;;;7.60;5.80;;;;;;;6.19;100.00;95984.79;110273;1241;60907;-64
2023/11/11 04:05:27;;;;;;;6.10;5.30;;;;;;;6.17;100.00;95984.84;110313;1240;72714;-65
2023/11/11 04:08:00;;;;;;;6.60;5.30;;;;;;;6.16;100.00;95987.63;110295;1242;69342;-63
2023/11/11 04:10:31;;;;;;;7.40;5.70;;;;;;;6.17;100.00;95977.20;110271;1242;69337;-64
2023/11/11 04:13:05;;;;;;;6.90;5.40;;;;;;;6.18;100.00;95978.70;110256;1240;60514;-64
2023/11/11 04:15:36;;;;;;;6.80;4.70;;;;;;;6.17;100.00;95974.99;110279;1240;60555;-64
2023/11/11 04:18:08;;;;;;;7.80;5.50;;;;;;;6.16;100.00;95971.56;110276;1241;72383;-66
2023/11/11 04:20:39;;;;;;;6.70;5.20;;;;;;;6.16;100.00;95968.84;110261;1240;69262;-65
2023/11/11 04:23:10;;;;;;;6.10;5.00;;;;;;;6.17;100.00;95966.14;110278;1242;68760;-66
2023/11/11 04:25:40;;;;;;;6.00;5.20;;;;;;;6.18;100.00;95961.39;110311;1242;60491;-66
2023/11/11 04:28:10;;;;;;;7.20;5.10;;;;;;;6.17;100.00;95959.08;110293;1241;61196;-64
2023/11/11 04:30:40;;;;;;;;;;;;;;;6.17;100.00;95953.88;110285;1242;72175;-64
2023/11/11 04:33:10;;;;;;;9.10;7.30;;;;;;;6.17;100.00;95950.59;110292;1243;69449;-64
2023/11/11 04:35:42;;;;;;;8.40;6.70;;;;;;;6.16;100.00;95948.92;110151;1243;69643;-64
2023/11/11 04:38:14;;;;;;;8.10;6.60;;;;;;;6.15;100.00;95942.41;110281;1241;60564;-65
2023/11/11 04:40:45;;;;;;;7.40;6.00;;;;;;;6.13;100.00;95939.38;110277;1240;60481;-64
2023/11/11 04:43:18;;;;;;;7.60;6.70;;;;;;;6.13;100.00;95935.48;110310;1241;71786;-63
2023/11/11 04:45:49;;;;;;;6.40;5.70;;;;;;;6.11;100.00;95937.98;110262;1241;68291;-64
2023/11/11 04:48:19;;;;;;;7.50;6.00;;;;;;;6.12;100.00;95942.98;110165;1241;69634;-64
2023/11/11 04:50:50;;;;;;;9.00;7.40;;;;;;;6.11;100.00;95947.15;110246;1240;60673;-66
2023/11/11 04:53:20;;;;;;;8.10;6.60;;;;;;;6.11;100.00;95945.31;110201;1241;60497;-65
2023/11/11 04:55:52;;;;;;;8.90;7.30;;;;;;;6.09;100.00;95940.73;110234;1241;72152;-64
2023/11/11 04:58:23;;;;;;;9.00;6.90;;;;;;;6.08;100.00;95937.77;110241;1242;69760;-64
2023/11/11 05:00:52;;;;;;;11.90;9.80;;;;;;;6.07;100.00;95935.25;110200;1241;69303;-63
2023/11/11 05:03:22;;;;;;;9.50;7.20;;;;;;;6.06;100.00;95941.57;110270;1242;60527;-65
2023/11/11 05:05:53;;;;;;;11.90;8.20;;;;;;;6.05;100.00;95943.14;110258;1241;60505;-64
2023/11/11 05:08:23;;;;;;;9.20;6.80;;;;;;;6.05;100.00;95943.19;110265;1240;72072;-64
2023/11/11 05:10:55;;;;;;;8.20;6.40;;;;;;;6.05;100.00;95949.38;110248;1247;69278;-64
2023/11/11 05:13:26;;;;;;;7.30;5.60;;;;;;;6.07;100.00;95955.48;110245;1239;69297;-64
2023/11/11 05:16:03;;;;;;;7.40;5.20;;;;;;;6.08;100.00;95955.73;110239;1240;60574;-64
2023/11/11 05:18:34;;;;;;;8.50;6.90;;;;;;;6.09;100.00;95952.70;110247;1240;60477;-64
2023/11/11 05:21:05;;;;;;;8.30;6.60;;;;;;;6.09;100.00;95954.27;110259;1243;72067;-63
2023/11/11 05:23:34;;;;;;;9.40;7.00;;;;;;;6.08;100.00;95954.48;110252;1243;68202;-64
2023/11/11 05:26:05;;;;;;;7.50;5.20;;;;;;;6.09;100.00;95958.23;110239;1244;69272;-66
2023/11/11 05:28:35;;;;;;;8.00;5.90;;;;;;;6.09;100.00;95954.08;110274;1240;60476;-65
2023/11/11 05:31:06;;;;;;;8.80;6.40;;;;;;;6.09;100.00;95950.98;110235;1245;60556;-65
2023/11/11 05:33:37;;;;;;;6.80;5.40;;;;;;;6.10;100.00;95949.70;110282;1242;72046;-65
2023/11/11 05:36:09;;;;;;;7.30;5.50;;;;;;;6.09;100.00;95949.55;110256;1242;69229;-64
2023/11/11 05:38:37;;;;;;;7.40;5.00;;;;;;;6.09;100.00;95950.61;110254;1240;69365;-64
2023/11/11 05:41:07;;;;;;;5.90;4.80;;;;;;;6.09;100.00;95950.13;110246;1242;60526;-64
2023/11/11 05:43:38;;;;;;;5.60;4.30;;;;;;;6.08;100.00;95954.65;110293;1241;60546;-65
2023/11/11 05:46:08;;;;;;;6.60;5.10;;;;;;;6.10;100.00;95953.33;110235;1240;71794;-65
2023/11/11 05:48:41;;;;;;;;;;;;;;;6.10;100.00;95947.58;110284;1241;69544;-63
2023/11/11 05:51:12;;;;;;;6.30;4.70;;;;;;;6.10;100.00;95948.63;110270;1243;69307;-64
2023/11/11 05:53:41;;;;;;;8.30;6.60;;;;;;;6.12;100.00;95948.15;110241;1239;60559;-65
2023/11/11 05:56:13;;;;;;;8.10;6.10;;;;;;;6.16;100.00;95951.72;110225;1241;60504;-64
2023/11/11 05:58:43;;;;;;;10.70;8.10;;;;;;;6.18;100.00;95950.45;110259;1240;71330;-64
2023/11/11 06:01:12;;;;;;;11.60;8.60;;;;;;;6.22;100.00;95950.14;110271;1240;69456;-66
2023/11/11 06:03:41;;;;;;;9.70;8.40;;;;;;;6.26;100.00;95946.39;110295;1240;69280;-65
2023/11/11 06:06:11;;;;;;;21.10;17.90;;;;;;;6.28;100.00;95953.64;110292;1245;60529;-67
2023/11/11 06:08:40;;;;;;;13.10;11.70;;;;;;;6.31;100.00;95956.89;110250;1241;60678;-64
2023/11/11 06:11:10;;;;;;;13.00;11.30;;;;;;;6.34;100.00;95957.52;110271;1241;72615;-64
2023/11/11 06:13:39;;;;;;;17.30;15.00;;;;;;;6.38;100.00;95964.59;110333;1241;69867;-65
2023/11/11 06:16:09;;;;;;;16.10;13.70;;;;;;;6.42;100.00;95963.97;110265;1244;68567;-64
2023/11/11 06:18:39;;;;;;;14.60;12.80;;;;;;;6.45;100.00;95968.38;110225;1241;60545;-64
2023/11/11 06:21:09;;;;;;;15.00;13.30;;;;;;;6.49;100.00;95969.48;110265;1244;60505;-64
2023/11/11 06:23:38;;;;;;;15.10;12.30;;;;;;;6.51;100.00;95968.25;110264;1241;72744;-64
2023/11/11 06:26:10;;;;;;;17.20;15.40;;;;;;;6.54;100.00;95969.96;110244;1241;68855;-64
2023/11/11 06:28:40;;;;;;;13.30;11.90;;;;;;;6.56;100.00;95971.02;110211;1241;67542;-66
2023/11/11 06:31:08;;;;;;;11.90;10.70;;;;;;;6.58;100.00;95964.59;110127;1240;60568;-66
2023/11/11 06:33:38;;;;;;;11.00;9.20;;;;;;;6.63;100.00;95957.58;110246;1243;60472;-66
2023/11/11 06:36:07;;;;;;;9.50;8.50;;;;;;;6.70;100.00;95955.16;110291;1241;72021;-64
2023/11/11 06:38:36;;;;;;;12.20;10.50;;;;;;;6.75;100.00;95957.36;110182;1240;68796;-65
2023/11/11 06:41:06;;;;;;;12.30;10.10;;;;;;;6.80;100.00;95955.22;110249;1241;70107;-64
2023/11/11 06:43:35;;;;;;;11.80;10.30;;;;;;;6.86;100.00;95953.66;110242;1240;60468;-64
2023/11/11 06:46:06;;;;;;;12.50;10.30;;;;;;;6.96;100.00;95955.83;110237;1240;60473;-64
2023/11/11 06:48:35;;;;;;;11.60;10.40;;;;;;;7.06;100.00;95954.10;110320;1241;71445;-64
2023/11/11 06:51:04;;;;;;;11.60;9.30;;;;;;;7.21;100.00;95950.48;110301;1240;68235;-65
2023/11/11 06:53:33;;;;;;;11.60;10.00;;;;;;;7.40;100.00;95945.48;110318;1240;69349;-65
2023/11/11 06:56:03;;;;;;;11.80;9.40;;;;;;;7.63;100.00;95939.52;110225;1240;60530;-66
2023/11/11 06:58:32;;;;;;;12.10;10.90;;;;;;;7.83;100.00;95938.38;110351;1243;60487;-66
2023/11/11 07:01:01;;;;;;;16.80;14.30;;;;;;;7.97;100.00;95936.16;110307;1240;72720;-66
2023/11/11 07:03:34;;;;;;;15.70;13.30;;;;;;;8.09;100.00;95933.66;110224;1242;69843;-65
2023/11/11 07:06:05;;;;;;;15.70;14.10;;;;;;;8.33;100.00;95934.08;110360;1240;67768;-66
2023/11/11 07:08:35;;;;;;;13.70;11.80;;;;;;;8.65;100.00;95930.71;110302;1240;60507;-65
2023/11/11 07:11:04;;;;;;;18.50;16.50;;;;;;;9.02;100.00;95928.48;110336;1241;60473;-65
2023/11/11 07:13:33;;;;;;;13.20;11.80;;;;;;;9.25;100.00;95930.61;110342;1242;72675;-66
2023/11/11 07:16:02;;;;;;;14.20;11.30;;;;;;;9.34;100.00;95932.77;110220;1240;69663;-66
2023/11/11 07:18:31;;;;;;;16.40;13.90;;;;;;;9.35;100.00;95938.42;110244;1243;70300;-64
2023/11/11 07:21:01;;;;;;;20.60;15.80;;;;;;;9.35;100.00;95936.10;110231;1241;60442;-66
2023/11/11 07:23:31;;;;;;;18.80;14.60;;;;;;;9.42;100.00;95927.48;110250;1240;60507;-64
2023/11/11 07:26:00;;;;;;;17.40;14.10;;;;;;;9.50;100.00;95922.38;110285;1240;71634;-66
2023/11/11 07:28:29;;;;;;;18.90;14.60;;;;;;;9.56;100.00;95919.60;110259;1241;68861;-64
2023/11/11 07:30:59;;;;;;;18.00;14.00;;;;;;;9.65;100.00;95910.75;110223;1242;69608;-64
2023/11/11 07:33:30;;;;;;;16.20;14.00;;;;;;;9.70;100.00;95907.63;110263;1243;60508;-66
2023/11/11 07:35:59;;;;;;;12.60;11.00;;;;;;;9.76;100.00;95897.73;110233;1242;60498;-63
2023/11/11 07:38:27;;;;;;;11.40;9.90;;;;;;;9.87;100.00;95895.10;110277;1241;72825;-66
2023/11/11 07:40:57;;;;;;;10.10;8.70;;;;;;;10.17;100.00;95894.01;110338;1241;69184;-64
2023/11/11 07:43:26;;;;;;;8.80;7.10;;;;;;;10.70;100.00;95881.93;110308;1241;67801;-65
2023/11/11 07:45:55;;;;;;;8.30;6.90;;;;;;;11.06;100.00;95878.39;110329;1242;60560;-65
2023/11/11 07:48:24;;;;;;;8.00;6.80;;;;;;;11.21;100.00;95870.19;110320;1241;60491;-65
2023/11/11 07:50:53;;;;;;;7.80;6.50;;;;;;;11.19;100.00;95861.44;110351;1241;72115;-65
2023/11/11 07:53:22;;;;;;;9.30;8.30;;;;;;;11.07;100.00;95856.88;110337;1242;69808;-65
2023/11/11 07:55:52;;;;;;;9.10;8.20;;;;;;;11.05;100.00;95850.16;110479;1241;69373;-66
2023/11/11 07:58:22;;;;;;;8.00;6.80;;;;;;;10.97;100.00;95855.23;110452;1241;60541;-66
2023/11/11 08:00:56;;;;;;;6.40;5.80;;;;;;;10.86;100.00;95858.13;110485;1241;60467;-64
2023/11/11 08:03:27;;;;;;;7.00;5.50;;;;;;;10.97;100.00;95848.44;110437;1241;72666;-64
2023/11/11 08:05:57;;;;;;;8.20;6.30;;;;;;;11.08;100.00;95839.76;110521;1241;69804;-68
2023/11/11 08:08:28;;;;;;;;;;;;;;;11.08;100.00;95835.69;110456;1241;67576;-67
2023/11/11 08:10:57;;;;;;;8.10;7.20;;;;;;;11.08;100.00;95829.23;110449;1241;60455;-65
2023/11/11 08:13:26;;;;;;;9.50;7.90;;;;;;;11.16;100.00;95831.05;110479;1241;60492;-65
2023/11/11 08:15:55;;;;;;;7.80;6.70;;;;;;;11.17;100.00;95832.15;110468;1240;72184;-65
2023/11/11 08:18:27;;;;;;;8.10;7.10;;;;;;;11.24;100.00;95836.04;110274;1240;68434;-65
2023/11/11 08:21:10;;;;;;;8.00;6.80;;;;;;;11.36;100.00;95843.51;110339;1241;69268;-67
2023/11/11 08:23:39;;;;;;;6.80;5.90;;;;;;;11.59;100.00;95847.11;110326;1241;60466;-67
2023/11/11 08:26:09;;;;;;;7.60;6.40;;;;;;;11.89;100.00;95854.93;110489;1240;61343;-65
2023/11/11 08:28:39;;;;;;;7.10;5.60;;;;;;;12.40;98.70;95852.38;110488;1241;72568;-65
2023/11/11 08:31:08;;;;;;;9.40;7.50;;;;;;;13.21;100.00;95842.18;110365;1241;69808;-64
2023/11/11 08:33:37;;;;;;;13.60;9.60;;;;;;;13.90;98.51;95839.77;110462;1241;69842;-65
2023/11/11 08:36:07;;;;;;;11.60;8.30;;;;;;;14.04;92.39;95847.52;110573;1241;60527;-66
2023/11/11 08:38:36;;;;;;;8.80;6.80;;;;;;;14.13;94.51;95849.13;110539;1240;60494;-65
2023/11/11 08:41:05;;;;;;;6.60;5.40;;;;;;;14.13;89.94;95844.36;110386;1239;72115;-65
2023/11/11 08:43:35;;;;;;;5.30;4.70;;;;;;;14.16;89.34;95841.59;110426;1241;69101;-65
2023/11/11 08:46:04;;;;;;;5.60;5.00;;;;;;;14.22;87.84;95836.14;110463;1241;68360;-67
2023/11/11 08:48:38;;;;;;;6.00;4.30;;;;;;;14.52;90.11;95827.52;110305;1241;60543;-67
2023/11/11 08:51:08;;;;;;;4.80;4.30;;;;;;;14.72;85.56;95821.41;110354;1241;60467;-66
2023/11/11 08:53:37;;;;;;;;;;;;;;;14.84;85.42;95829.02;110446;1240;72588;-64
2023/11/11 08:56:07;;;;;;;7.30;5.20;;;;;;;14.90;81.27;95820.02;110437;1239;69232;-66
2023/11/11 08:58:35;;;;;;;5.40;3.60;;;;;;;15.20;78.86;95815.64;110471;1239;70075;-66
2023/11/11 09:01:06;;;;;;;5.20;3.80;;;;;;;15.69;77.07;95807.65;110407;1241;60500;-64
2023/11/11 09:03:35;;;;;;;5.00;3.70;;;;;;;16.00;75.27;95815.73;110452;1240;60492;-64
2023/11/11 09:06:05;;;;;;;4.30;3.50;;;;;;;15.99;76.71;95810.44;110525;1241;72075;-64
2023/11/11 09:08:34;;;;;;;3.90;3.30;;;;;;;15.69;72.82;95800.11;110368;1239;69263;-64
2023/11/11 09:11:03;;;;;;;3.80;3.40;;;;;;;15.53;71.41;95795.10;110431;1241;69254;-63
2023/11/11 09:13:32;;;;;;;3.20;2.90;;;;;;;15.66;72.61;95793.60;110431;1241;60554;-66
2023/11/11 09:16:03;;;;;;;4.30;3.20;;;;;;;15.74;70.70;95790.71;110481;1242;60553;-64
2023/11/11 09:18:32;;;;;;;4.10;3.70;;;;;;;15.83;71.03;95794.23;110515;1241;71214;-65
2023/11/11 09:21:04;;;;;;;4.30;3.00;;;;;;;15.65;70.41;95790.94;110037;1241;545764;-66
2023/11/11 09:23:40;;;;;;;4.50;3.00;;;;;;;16.29;69.48;95793.95;110324;1241;68354;-63
2023/11/11 09:26:09;;;;;;;3.00;2.40;;;;;;;17.21;69.37;95785.09;110454;1241;60534;-63
2023/11/11 09:28:38;;;;;;;2.80;2.30;;;;;;;17.52;62.24;95775.83;110461;1241;60501;-64
2023/11/11 09:31:08;;;;;;;;;;;;;;;17.79;59.70;95772.46;110366;1241;72285;-63
2023/11/11 09:33:39;;;;;;;4.20;2.90;;;;;;;18.16;59.30;95776.48;110476;1241;69115;-63
2023/11/11 09:36:09;;;;;;;3.80;2.50;;;;;;;17.63;59.18;95776.27;110306;1241;69274;-63
2023/11/11 09:38:38;;;;;;;;;;;;;;;16.99;59.51;95782.23;110246;1241;60488;-63
2023/11/11 09:41:07;;;;;;;3.90;2.70;;;;;;;16.36;61.23;95781.86;110516;1241;60446;-64
2023/11/11 09:43:37;;;;;;;3.50;2.80;;;;;;;15.96;62.62;95780.30;110391;1240;72289;-64
2023/11/11 09:46:08;;;;;;;;;;;;;;;15.50;64.01;95773.19;110420;1239;69307;-65
2023/11/11 09:48:38;;;;;;;4.20;3.00;;;;;;;15.07;65.33;95769.95;110364;1240;70205;-66
2023/11/11 09:51:08;;;;;;;5.10;3.60;;;;;;;14.63;66.61;95772.08;110477;1240;60541;-63
2023/11/11 09:53:40;;;;;;;;;;;;;;;14.17;68.43;95771.36;110356;1241;60442;-64
2023/11/11 09:56:12;;;;;;;4.40;3.30;;;;;;;13.77;70.45;95773.56;110414;1240;72151;-63
2023/11/11 09:59:02;;;;;;;4.90;3.60;;;;;;;13.47;71.42;95771.35;110305;1239;69588;-63
2023/11/11 10:01:33;;;;;;;5.50;3.90;;;;;;;13.23;73.34;95766.61;110405;1241;69822;-64
2023/11/11 10:04:02;;;;;;;5.40;3.70;;;;;;;13.03;75.04;95761.64;110293;1241;60482;-63
2023/11/11 10:06:33;;;;;;;4.70;3.90;;;;;;;12.92;75.90;95762.98;110284;1241;60467;-63
2023/11/11 10:09:09;;;;;;;5.20;3.80;;;;;;;12.96;76.26;95757.84;110404;1241;72204;-63
2023/11/11 10:11:41;;;;;;;5.90;3.50;;;;;;;13.00;77.01;95755.50;110364;1241;69818;-64
2023/11/11 10:14:13;;;;;;;5.70;4.20;;;;;;;13.15;76.73;95749.67;110331;1241;69104;-63
2023/11/11 10:16:42;;;;;;;5.10;4.60;;;;;;;13.31;77.26;95749.15;110327;1244;60537;-64
2023/11/11 10:19:14;;;;;;;4.40;4.00;;;;;;;13.52;77.46;95750.52;110317;1241;60465;-63
2023/11/11 10:21:44;;;;;;;4.40;3.50;;;;;;;13.96;76.45;95749.44;110282;1241;71435;-66
2023/11/11 10:24:15;;;;;;;3.90;3.40;;;;;;;14.64;75.42;95755.02;110201;1241;68448;-66
2023/11/11 10:26:44;;;;;;;3.70;3.30;;;;;;;15.14;73.40;95747.23;110246;1242;68407;-66
2023/11/11 10:29:14;;;;;;;4.30;3.10;;;;;;;15.46;72.65;95747.36;110223;1241;60556;-66
2023/11/11 10:31:47;;;;;;;4.30;3.60;;;;;;;15.60;69.78;95749.45;110121;1243;60494;-64
2023/11/11 10:34:16;;;;;;;3.80;3.10;;;;;;;15.64;69.50;95747.98;110244;1241;71888;-64
2023/11/11 10:36:46;;;;;;;4.10;3.60;;;;;;;15.67;69.01;95749.64;110271;1241;69802;-64
2023/11/11 10:39:15;;;;;;;;;;;;;;;15.56;68.16;95747.75;110220;1241;69239;-66
2023/11/11 10:41:44;;;;;;;4.90;3.60;;;;;;;15.31;69.08;95742.78;110248;1240;60522;-65
2023/11/11 10:44:13;;;;;;;4.10;3.20;;;;;;;15.10;68.68;95741.91;110264;1241;60506;-65
2023/11/11 10:46:43;;;;;;;4.00;3.40;;;;;;;14.94;69.17;95742.42;110260;1242;72348;-64
2023/11/11 10:49:13;;;;;;;4.40;3.60;;;;;;;14.73;69.43;95738.38;110319;1243;69112;-64
2023/11/11 10:51:42;;;;;;;;;;;;;;;14.57;69.91;95735.36;110300;1243;69674;-64
2023/11/11 10:54:13;;;;;;;4.70;3.30;;;;;;;14.35;70.78;95730.80;110243;1240;60545;-67
2023/11/11 10:56:44;;;;;;;4.00;2.50;;;;;;;14.26;71.09;95727.28;110301;1242;60501;-66
2023/11/11 10:59:15;;;;;;;3.70;2.80;;;;;;;14.45;71.14;95721.98;110283;1241;72782;-64
2023/11/11 11:01:45;;;;;;;3.60;3.20;;;;;;;14.59;71.02;95715.77;110302;1243;69304;-64
2023/11/11 11:04:15;;;;;;;3.20;2.50;;;;;;;14.68;70.71;95714.16;110239;1244;69720;-66
2023/11/11 11:07:09;;;;;;;3.50;3.20;;;;;;;14.84;70.33;95714.27;110233;1241;60508;-66
2023/11/11 11:09:51;;;;;;;3.50;2.60;;;;;;;14.99;70.02;95710.21;110232;1241;60494;-66
2023/11/11 11:12:30;;;;;;;3.10;2.50;;;;;;;15.15;70.04;95708.73;110238;1240;72793;-65
2023/11/11 11:15:05;;;;;;;2.80;2.40;;;;;;;15.28;69.81;95708.23;110203;1241;69194;-65
2023/11/11 11:17:41;;;;;;;3.70;3.10;;;;;;;15.39;69.33;95704.95;110267;1240;69313;-64
2023/11/11 11:20:18;;;;;;;3.50;2.90;;;;;;;15.46;68.79;95698.75;110305;1242;60483;-64
2023/11/11 11:22:47;;;;;;;3.40;2.50;;;;;;;15.51;67.89;95697.39;110237;1242;60459;-64
2023/11/11 11:25:44;;;;;;;3.90;3.20;;;;;;;15.57;66.89;95693.86;110271;1241;72612;-66
2023/11/11 11:28:18;;;;;;;3.80;2.80;;;;;;;15.53;66.72;95692.03;110264;1242;69838;-64
2023/11/11 11:30:58;;;;;;;2.80;2.60;;;;;;;15.40;66.56;95685.52;110261;1242;68416;-64
2023/11/11 11:33:32;;;;;;;2.90;2.50;;;;;;;15.29;67.39;95684.71;110107;1245;60533;-64
2023/11/11 11:36:06;;;;;;;2.50;2.30;;;;;;;15.30;67.69;95682.58;110284;1242;60509;-64
2023/11/11 11:38:38;;;;;;;3.10;2.40;;;;;;;15.39;67.22;95683.98;110279;1241;72769;-64
2023/11/11 11:41:12;;;;;;;3.10;2.10;;;;;;;15.52;66.77;95676.90;110222;1241;70058;-63
2023/11/11 11:43:41;;;;;;;3.60;2.30;;;;;;;15.63;66.88;95673.52;110230;1242;69247;-65
2023/11/11 11:46:11;;;;;;;;;;;;;;;15.66;65.92;95667.01;110249;1243;60476;-64